Allerton, IL

1:21 PM CDT on May 06, 2015 (GMT -0500)
APRSWXNET | | Change Station
CLOSE
Current Station
Personal Weather Station
Location: Newman, IL
Elevation: 649 ft
Nearby Weather Stations

Elev 649 ft 39.80 °N, 87.98 °W | Updated 32 minutes ago

Partly Cloudy
Partly Cloudy
83 °F
Feels Like 82 °F
N
5
Wind Variable Wind from SSW
Gusts 11.0 mph

Today
High -- | Low -- °F
--% Chance of Precip.
Yesterday
High -- | Low -- °F
Precip. -- in
5:46 AM 7:51 PM
Waning Gibbous, 93% visible
Pressure 30.12 in
Visibility 10.0 miles
Clouds Few 8000 ft
Heat Index 82 °F
Dew Point 52 °F
Humidity 34%
Rainfall in
Snow Depth Not available.
UV 10 out of 12
Pollen 10.40 out of 12
Air Quality Not available.
Flu Activity Local Activity
METAR KCMI 061753Z 21014G19KT 10SM FEW080 30/08 A3014 RMK AO2 SLP199 T03000078 10306 20183 58013

More Conditions Fewer Conditions

Pressure 30.12 in
Visibility 10.0 miles
Clouds Few 8000 ft
Heat Index 82 °F
Dew Point 52 °F
Humidity 34%
Rainfall in
Snow Depth Not available.
UV 10 out of 12
Pollen 10.40 out of 12
Air Quality Not available.
Flu Activity Local Activity
METAR KCMI 061753Z 21014G19KT 10SM FEW080 30/08 A3014 RMK AO2 SLP199 T03000078 10306 20183 58013

More Conditions Fewer Conditions

10-Day Weather Forecast

Almanac

Astronomy

May. 06, 2015 Rise Set
Actual Time
Civil Twilight
Nautical Twilight
Astronomical Twilight
Moon
Length of Visible Light
Length of Day
Tomorrow will be .
, % of the Moon is Illuminated

Today's Extremes

State Highs State Lows

Community

WunderPhotos

Upload Photos

1,818,968 photos uploaded!

WunderBlogs® & News

Nearby

Air Quality

  Air Quality AQ Index Pollutant
Not available.

Snow Depth

Station Depth Elevation

Earthquake Activity

City Distance Mag. Time & Date
Minimum magnitude displayed is 2.5.

Coastal Water Temperatures

Place Temperature

Stations

Nearby Weather Stations

Station Location Temp. Windchill Dew Point Humidity Wind Precip. Elev Updated Type